Time;durP1;ratioP1;P1;durP2;ratioP2;P2;SDS_P1;SDS_P2;PMS_P1;PMS_P2;Temp;Humidity;BMP_temperature;BMP_pressure;BME280_temperature;BME280_humidity;BME280_pressure;Samples;Min_cycle;Max_cycle;Signal;HPM_P1;HPM_P2
2022/12/08 00:03:59;;;;;;;42.45;21.13;;;;;;;5.61;100.00;100154.88;8389262;28;20417;-50
2022/12/08 00:09:31;;;;;;;39.58;19.88;;;;;;;5.63;100.00;100147.59;8390341;28;20037;-50
2022/12/08 00:12:20;;;;;;;39.80;21.08;;;;;;;5.59;100.00;100140.75;8379906;28;20051;-49
2022/12/08 00:16:21;;;;;;;39.33;19.90;;;;;;;5.51;100.00;100132.44;8389826;28;20075;-52
2022/12/08 00:20:21;;;;;;;39.42;20.77;;;;;;;5.47;100.00;100130.97;8389428;28;20111;-52
2022/12/08 00:24:24;;;;;;;37.60;20.42;;;;;;;5.45;100.00;100123.06;8389714;28;20052;-51
2022/12/08 00:28:25;;;;;;;40.20;19.98;;;;;;;5.45;100.00;100123.06;8389975;28;20060;-53
2022/12/08 00:32:25;;;;;;;43.28;21.55;;;;;;;5.48;100.00;100121.97;8389500;28;20037;-49
2022/12/08 00:36:26;;;;;;;34.58;20.25;;;;;;;5.43;100.00;100114.28;8388949;28;20036;-49
2022/12/08 00:40:27;;;;;;;42.22;22.63;;;;;;;5.42;100.00;100109.88;8390234;28;20468;-49
2022/12/08 00:44:28;;;;;;;43.88;22.10;;;;;;;5.45;100.00;100100.75;8388739;28;20072;-50
2022/12/08 00:48:28;;;;;;;44.97;22.45;;;;;;;5.45;100.00;100095.38;8389211;28;20036;-53
2022/12/08 00:52:28;;;;;;;50.00;22.50;;;;;;;5.41;100.00;100100.16;8387657;28;20047;-53
2022/12/08 00:56:30;;;;;;;45.88;22.95;;;;;;;5.39;100.00;100094.03;8370230;28;20044;-49
2022/12/08 01:00:30;;;;;;;42.92;23.13;;;;;;;5.40;100.00;100102.94;8388992;28;20120;-50
2022/12/08 01:04:31;;;;;;;41.45;21.92;;;;;;;5.42;100.00;100090.25;8369650;28;20506;-49
2022/12/08 01:08:32;;;;;;;39.38;21.38;;;;;;;5.42;100.00;100084.91;8386261;28;20514;-50
2022/12/08 01:12:32;;;;;;;38.17;20.38;;;;;;;5.48;100.00;100089.78;8388000;28;20036;-48
2022/12/08 01:16:34;;;;;;;37.63;18.83;;;;;;;5.52;100.00;100091.28;8387253;28;20052;-49
2022/12/08 01:20:35;;;;;;;36.50;20.35;;;;;;;5.56;100.00;100087.38;8388268;28;20413;-49
2022/12/08 01:24:35;;;;;;;38.03;19.73;;;;;;;5.58;100.00;100086.28;8386796;28;20135;-49
2022/12/08 01:28:37;;;;;;;37.25;20.20;;;;;;;5.59;100.00;100079.97;8387180;28;20045;-49
2022/12/08 01:32:37;;;;;;;36.20;18.60;;;;;;;5.64;100.00;100085.78;8388210;28;20036;-50
2022/12/08 01:36:38;;;;;;;36.40;18.75;;;;;;;5.59;100.00;100087.13;8387089;28;20032;-49
2022/12/08 01:40:38;;;;;;;33.35;17.67;;;;;;;5.57;100.00;100087.25;8388731;28;20040;-49
2022/12/08 01:49:00;;;;;;;32.67;18.75;;;;;;;5.60;100.00;100088.84;8411396;27;20458;-51
2022/12/08 01:53:09;;;;;;;37.38;20.00;;;;;;;5.61;100.00;100082.50;8403041;27;20040;-54
2022/12/08 01:57:17;;;;;;;35.83;18.67;;;;;;;5.59;100.00;100077.28;8398866;27;20543;-51
2022/12/08 02:01:18;;;;;;;32.97;16.95;;;;;;;5.59;100.00;100068.38;8367448;28;20040;-49
2022/12/08 02:05:23;;;;;;;35.05;17.02;;;;;;;5.63;100.00;100075.19;8367960;28;20044;-50
2022/12/08 02:09:24;;;;;;;32.17;15.80;;;;;;;5.66;100.00;100066.91;8367534;28;20041;-50
2022/12/08 02:13:25;;;;;;;33.33;16.83;;;;;;;5.67;100.00;100069.47;8367491;28;20083;-49
2022/12/08 02:17:56;;;;;;;33.20;16.05;;;;;;;5.70;100.00;100061.19;8367264;28;20064;-49
2022/12/08 02:22:08;;;;;;;26.23;14.25;;;;;;;5.72;100.00;100055.69;8390137;27;20059;-49
2022/12/08 02:26:40;;;;;;;29.15;13.65;;;;;;;5.64;100.00;100045.56;8366828;28;20033;-49
2022/12/08 02:30:52;;;;;;;26.25;13.57;;;;;;;5.71;100.00;100048.63;8365403;28;20044;-51
2022/12/08 02:35:00;;;;;;;27.25;13.73;;;;;;;5.70;100.00;100046.91;8361310;28;20037;-49
2022/12/08 02:43:43;;;;;;;25.70;13.57;;;;;;;5.69;100.00;100040.72;8412572;27;20746;-48
2022/12/08 02:47:43;;;;;;;28.35;12.77;;;;;;;5.68;100.00;100030.94;8416861;28;20028;-49
2022/12/08 02:51:44;;;;;;;24.92;12.95;;;;;;;5.69;100.00;100023.75;8380044;28;20110;-49
2022/12/08 02:56:07;;;;;;;23.42;13.48;;;;;;;5.71;100.00;100011.94;8397397;27;20120;-51
2022/12/08 03:00:15;;;;;;;24.60;12.63;;;;;;;5.71;100.00;100008.41;8413582;27;20036;-50
2022/12/08 03:04:44;;;;;;;22.17;12.45;;;;;;;5.75;100.00;100007.19;8398539;27;20040;-48
2022/12/08 03:08:53;;;;;;;25.45;11.55;;;;;;;5.73;100.00;99998.41;8398099;27;20058;-48
2022/12/08 03:13:04;;;;;;;22.42;12.10;;;;;;;5.75;100.00;100000.00;8398707;27;20413;-49
2022/12/08 03:17:07;;;;;;;17.77;11.38;;;;;;;5.74;100.00;99992.06;8398101;27;20230;-49
2022/12/08 03:21:09;;;;;;;23.58;11.85;;;;;;;5.73;100.00;99990.34;8396115;27;20429;-48
2022/12/08 03:25:13;;;;;;;22.40;11.30;;;;;;;5.67;100.00;99988.16;8377534;27;20442;-49
2022/12/08 03:29:14;;;;;;;19.73;11.13;;;;;;;5.61;100.00;99981.47;8395133;27;20076;-48
2022/12/08 03:33:23;;;;;;;22.73;11.68;;;;;;;5.54;100.00;99976.72;8397177;27;20040;-48
2022/12/08 03:37:26;;;;;;;23.80;12.18;;;;;;;5.55;100.00;99978.44;8414074;27;20450;-49
2022/12/08 03:41:27;;;;;;;23.33;12.15;;;;;;;5.52;100.00;99973.31;8413463;27;20037;-51
2022/12/08 03:45:28;;;;;;;25.90;12.80;;;;;;;5.52;100.00;99968.78;8414254;27;20123;-49
2022/12/08 03:49:28;;;;;;;20.98;12.18;;;;;;;5.50;100.00;99970.78;8414057;27;20115;-52
2022/12/08 03:53:29;;;;;;;27.60;14.25;;;;;;;5.52;100.00;99958.06;8400003;27;20032;-48
2022/12/08 03:57:29;;;;;;;21.52;13.05;;;;;;;5.50;100.00;99953.81;8391359;28;20456;-49
2022/12/08 04:01:30;;;;;;;20.25;12.18;;;;;;;5.48;100.00;99956.63;8391548;28;20074;-50
2022/12/08 04:05:31;;;;;;;24.33;13.48;;;;;;;5.49;100.00;99952.13;8392364;28;20036;-50
2022/12/08 04:09:31;;;;;;;23.50;12.68;;;;;;;5.45;100.00;99950.66;8390807;28;20102;-50
2022/12/08 04:13:33;;;;;;;26.23;13.57;;;;;;;5.47;100.00;99949.56;8391306;28;20401;-49
2022/12/08 04:17:34;;;;;;;28.85;14.13;;;;;;;5.44;100.00;99947.13;8412202;28;20043;-53
2022/12/08 04:21:34;;;;;;;26.00;14.43;;;;;;;5.45;100.00;99945.28;8389257;28;20558;-52
2022/12/08 04:25:35;;;;;;;30.02;14.82;;;;;;;5.45;100.00;99945.28;8391434;28;20118;-50
2022/12/08 04:29:36;;;;;;;34.50;16.48;;;;;;;5.46;100.00;99938.97;8390357;28;20040;-50
2022/12/08 04:33:37;;;;;;;36.17;17.52;;;;;;;5.45;100.00;99929.19;8390829;28;20041;-50
2022/12/08 04:37:38;;;;;;;36.17;17.38;;;;;;;5.48;100.00;99928.97;8388858;28;20094;-52
2022/12/08 04:41:38;;;;;;;35.17;17.92;;;;;;;5.46;100.00;99926.41;8389793;28;20094;-49
2022/12/08 04:45:40;;;;;;;36.88;18.75;;;;;;;5.46;100.00;99921.03;8390748;28;20051;-50
2022/12/08 04:49:41;;;;;;;38.92;19.17;;;;;;;5.50;100.00;99924.34;8388762;28;20032;-50
2022/12/08 04:53:42;;;;;;;44.13;21.10;;;;;;;5.49;100.00;99915.44;8389553;28;20048;-53
2022/12/08 04:57:42;;;;;;;43.53;21.67;;;;;;;5.50;100.00;99921.66;8389552;28;20048;-53
2022/12/08 05:01:43;;;;;;;47.92;22.73;;;;;;;5.51;100.00;99912.63;8385330;28;20041;-54
2022/12/08 05:05:43;;;;;;;54.30;21.38;;;;;;;5.53;100.00;99921.41;8364703;28;20047;-53
2022/12/08 05:09:44;;;;;;;43.95;21.10;;;;;;;5.51;100.00;99923.34;8363719;28;20393;-54
2022/12/08 05:13:44;;;;;;;52.65;22.58;;;;;;;5.56;100.00;99921.16;8372733;28;20128;-52
2022/12/08 05:17:45;;;;;;;48.28;22.48;;;;;;;5.60;100.00;99917.25;8383014;28;20394;-52
2022/12/08 05:21:45;;;;;;;49.47;22.13;;;;;;;5.62;100.00;99918.00;8352900;28;20480;-50
2022/12/08 05:25:46;;;;;;;51.45;22.02;;;;;;;5.62;100.00;99921.50;8373030;28;20067;-51
2022/12/08 05:29:47;;;;;;;43.67;22.33;;;;;;;5.64;100.00;99913.34;8365213;28;20040;-50
2022/12/08 05:33:49;;;;;;;43.22;19.98;;;;;;;5.65;100.00;99907.84;8353565;28;20266;-54
2022/12/08 05:37:50;;;;;;;44.72;18.60;;;;;;;5.66;100.00;99911.38;8379147;28;20131;-50
2022/12/08 05:41:51;;;;;;;42.03;18.13;;;;;;;5.64;100.00;99908.84;8371478;28;20045;-51
2022/12/08 05:45:51;;;;;;;36.42;17.15;;;;;;;5.63;100.00;99908.97;8358856;28;20130;-52
2022/12/08 05:49:52;;;;;;;34.38;17.58;;;;;;;5.64;100.00;99902.59;8362282;28;20396;-53
2022/12/08 05:53:53;;;;;;;36.88;18.88;;;;;;;5.68;100.00;99901.41;8354858;28;20071;-52
2022/12/08 05:57:53;;;;;;;38.13;17.45;;;;;;;5.67;100.00;99899.69;8361197;28;20482;-53
2022/12/08 06:01:54;;;;;;;42.58;17.77;;;;;;;5.64;100.00;99894.56;8361539;28;20123;-53
2022/12/08 06:05:54;;;;;;;37.95;17.08;;;;;;;5.61;100.00;99882.28;8351038;28;20131;-51
2022/12/08 06:09:55;;;;;;;35.45;17.40;;;;;;;5.58;100.00;99881.69;8368808;28;20037;-49
2022/12/08 06:13:57;;;;;;;38.08;16.80;;;;;;;5.61;100.00;99886.78;8367644;28;20529;-49
2022/12/08 06:17:57;;;;;;;39.00;17.10;;;;;;;5.61;100.00;99897.50;8370441;28;20472;-52
2022/12/08 06:21:58;;;;;;;37.53;16.98;;;;;;;5.59;100.00;99888.75;8355601;28;20056;-52
2022/12/08 06:26:01;;;;;;;41.13;18.27;;;;;;;5.55;100.00;99892.66;8370720;28;20507;-50
2022/12/08 06:30:01;;;;;;;38.45;17.58;;;;;;;5.55;100.00;99900.69;8368530;28;20035;-51
2022/12/08 06:34:02;;;;;;;38.13;16.90;;;;;;;5.55;100.00;99881.94;8356464;28;20121;-50
2022/12/08 06:38:02;;;;;;;41.55;18.48;;;;;;;5.56;100.00;99889.00;8361987;28;20076;-51
2022/12/08 06:43:03;;;;;;;40.00;16.52;;;;;;;5.63;100.00;99887.50;8364815;28;20098;-52
2022/12/08 06:46:23;;;;;;;38.25;17.38;;;;;;;5.57;100.00;99879.97;8418664;28;20117;-52
2022/12/08 06:50:24;;;;;;;38.15;17.58;;;;;;;5.54;100.00;99897.16;8356636;28;20071;-51
2022/12/08 06:54:24;;;;;;;49.97;18.40;;;;;;;5.52;100.00;99898.28;8362308;28;20048;-52
2022/12/08 06:58:25;;;;;;;40.25;17.70;;;;;;;5.48;100.00;99896.78;8363795;28;20041;-54
2022/12/08 07:02:25;;;;;;;36.58;17.50;;;;;;;5.46;100.00;99888.88;8378196;28;20516;-53
2022/12/08 07:06:26;;;;;;;49.03;18.10;;;;;;;5.47;100.00;99903.13;8387174;28;20040;-52
2022/12/08 07:10:26;;;;;;;36.85;18.35;;;;;;;5.45;100.00;99902.41;8384888;28;20032;-52
2022/12/08 07:14:27;;;;;;;39.70;17.52;;;;;;;5.42;100.00;99894.59;8353733;28;20098;-52
2022/12/08 07:18:27;;;;;;;40.78;18.08;;;;;;;5.44;100.00;99900.72;8367345;28;20041;-50
2022/12/08 07:22:28;;;;;;;37.85;18.33;;;;;;;5.45;100.00;99907.75;8367926;28;20120;-50
2022/12/08 07:26:28;;;;;;;36.70;17.38;;;;;;;5.45;100.00;99902.41;8369627;28;20041;-53
2022/12/08 07:30:29;;;;;;;34.30;16.45;;;;;;;5.36;100.00;99909.34;8375683;28;20346;-54
2022/12/08 07:34:29;;;;;;;36.47;17.40;;;;;;;5.26;100.00;99910.22;8376043;28;20037;-51
2022/12/08 07:38:30;;;;;;;37.95;17.15;;;;;;;5.20;100.00;99913.38;8375444;28;20057;-50
2022/12/08 07:42:31;;;;;;;44.17;19.92;;;;;;;5.18;100.00;99910.81;8375707;28;20050;-53
2022/12/08 07:46:31;;;;;;;41.10;19.02;;;;;;;5.19;100.00;99903.66;8375638;28;20048;-51
2022/12/08 07:50:32;;;;;;;47.60;18.60;;;;;;;5.12;100.00;99897.06;8375142;28;20509;-52
2022/12/08 07:54:33;;;;;;;48.08;18.40;;;;;;;5.12;100.00;99905.13;8375908;28;20063;-52
2022/12/08 07:58:33;;;;;;;40.55;18.60;;;;;;;5.11;100.00;99898.03;8373196;28;20037;-55
2022/12/08 08:02:34;;;;;;;45.38;19.50;;;;;;;5.15;100.00;99910.19;8415580;28;20497;-51
2022/12/08 08:06:36;;;;;;;40.67;18.30;;;;;;;5.14;100.00;99906.69;8424811;28;20105;-51
2022/12/08 08:10:37;;;;;;;41.42;18.65;;;;;;;4.98;100.00;99897.31;8396809;28;20099;-51
2022/12/08 08:14:37;;;;;;;40.22;18.65;;;;;;;4.93;100.00;99894.13;8374578;28;20033;-50
2022/12/08 08:18:39;;;;;;;44.50;19.92;;;;;;;4.98;100.00;99897.31;8371834;28;20563;-53
2022/12/08 08:22:39;;;;;;;43.80;19.52;;;;;;;5.04;100.00;99907.53;8374411;28;20045;-53
2022/12/08 08:26:42;;;;;;;34.78;17.15;;;;;;;5.03;100.00;99904.00;8374127;28;20052;-53
2022/12/08 08:30:45;;;;;;;39.33;18.33;;;;;;;5.05;100.00;99906.56;8373517;28;20052;-51
2022/12/08 08:34:46;;;;;;;37.97;18.08;;;;;;;5.07;100.00;99907.28;8374009;28;20032;-52
2022/12/08 08:38:47;;;;;;;35.25;17.75;;;;;;;5.10;100.00;99904.38;8371817;28;20129;-51
2022/12/08 08:42:47;;;;;;;37.40;17.95;;;;;;;5.11;100.00;99903.38;8372102;28;20472;-52
2022/12/08 08:46:48;;;;;;;33.60;14.93;;;;;;;5.04;100.00;99900.38;8373046;28;20621;-52
2022/12/08 08:50:48;;;;;;;16.52;9.60;;;;;;;4.99;100.00;99912.38;8371113;28;20056;-52
2022/12/08 08:54:49;;;;;;;17.92;10.38;;;;;;;4.95;100.00;99908.25;8379155;28;20518;-53
2022/12/08 08:58:51;;;;;;;18.65;10.95;;;;;;;4.95;100.00;99908.25;8354088;28;20048;-51
2022/12/08 09:02:51;;;;;;;17.13;9.02;;;;;;;4.92;100.00;99906.69;8372572;28;20479;-51
2022/12/08 09:06:52;;;;;;;18.00;8.95;;;;;;;4.94;100.00;99909.25;8373444;28;20040;-51
2022/12/08 09:10:53;;;;;;;21.08;12.23;;;;;;;4.98;100.00;99903.53;8372808;28;20040;-52
2022/12/08 09:14:53;;;;;;;27.75;12.82;;;;;;;5.00;100.00;99906.91;8358716;28;20067;-53
2022/12/08 09:18:54;;;;;;;17.75;10.35;;;;;;;4.94;100.00;99918.09;8370174;28;20814;-51
2022/12/08 09:22:54;;;;;;;12.40;5.47;;;;;;;4.71;100.00;99918.19;8372112;28;20036;-51
2022/12/08 09:26:55;;;;;;;14.05;8.40;;;;;;;4.70;100.00;99920.00;8372710;28;20041;-50
2022/12/08 09:30:55;;;;;;;13.00;7.35;;;;;;;4.72;100.00;99911.84;8371675;28;20434;-54
2022/12/08 09:34:56;;;;;;;19.77;8.70;;;;;;;4.79;100.00;99908.59;8354686;28;20041;-51
2022/12/08 09:38:56;;;;;;;16.75;10.15;;;;;;;4.87;100.00;99911.53;8370784;28;20044;-51
2022/12/08 09:43:16;;;;;;;22.13;11.98;;;;;;;4.91;100.00;99906.81;8353986;28;20346;-52
2022/12/08 09:47:42;;;;;;;27.20;12.48;;;;;;;4.93;100.00;99910.19;8388327;28;20106;-51
2022/12/08 09:51:44;;;;;;;23.90;12.10;;;;;;;4.92;100.00;99904.00;8386135;28;20046;-52
2022/12/08 09:55:51;;;;;;;26.05;14.18;;;;;;;4.93;100.00;99899.47;8404092;28;20064;-51
2022/12/08 09:59:58;;;;;;;23.65;13.05;;;;;;;4.96;100.00;99893.88;8393360;28;20036;-53
2022/12/08 10:04:00;;;;;;;29.83;14.65;;;;;;;4.99;100.00;99896.31;8371619;28;20048;-54
2022/12/08 10:08:10;;;;;;;29.40;15.00;;;;;;;5.06;100.00;99889.53;8357304;28;20105;-51
2022/12/08 10:12:35;;;;;;;29.70;15.45;;;;;;;5.13;100.00;99890.75;8371653;28;20180;-54
2022/12/08 10:16:40;;;;;;;30.92;15.35;;;;;;;5.19;100.00;99876.84;8376299;28;20033;-52
2022/12/08 10:20:43;;;;;;;29.83;15.20;;;;;;;5.26;100.00;99886.09;8365292;28;20037;-50
2022/12/08 10:24:59;;;;;;;30.15;16.95;;;;;;;5.32;100.00;99885.59;8377493;28;20216;-52
2022/12/08 10:29:01;;;;;;;32.40;16.20;;;;;;;5.40;100.00;99877.81;8379843;28;20583;-53
2022/12/08 10:33:03;;;;;;;45.40;18.38;;;;;;;5.45;100.00;99864.88;8386196;28;20047;-51
2022/12/08 10:37:09;;;;;;;31.80;16.23;;;;;;;5.48;100.00;99854.78;8387071;28;20067;-52
2022/12/08 10:41:13;;;;;;;33.60;16.25;;;;;;;5.62;100.00;99867.03;8386178;28;20153;-51
2022/12/08 10:45:28;;;;;;;30.85;15.82;;;;;;;5.74;100.00;99855.31;8386274;28;20047;-51
2022/12/08 10:49:31;;;;;;;37.35;16.67;;;;;;;5.85;100.00;99849.94;8363940;28;20029;-51
2022/12/08 10:53:32;;;;;;;35.13;17.73;;;;;;;5.93;100.00;99848.34;8370315;28;20498;-51
2022/12/08 10:57:37;;;;;;;35.65;17.08;;;;;;;5.96;100.00;99844.53;8380658;28;20036;-50
2022/12/08 11:01:40;;;;;;;41.78;18.98;;;;;;;5.92;100.00;99845.78;8383222;28;20388;-52
2022/12/08 11:05:40;;;;;;;40.50;16.65;;;;;;;5.88;100.00;99836.28;8364391;28;20592;-51
2022/12/08 11:09:47;;;;;;;34.33;16.13;;;;;;;5.89;100.00;99838.00;8353742;28;20407;-50
2022/12/08 11:13:50;;;;;;;35.55;15.82;;;;;;;5.72;100.00;99835.81;8358112;28;20044;-52
2022/12/08 11:18:01;;;;;;;41.40;15.98;;;;;;;5.53;100.00;99832.94;8382422;28;20554;-53
2022/12/08 11:22:20;;;;;;;36.58;16.52;;;;;;;5.38;100.00;99831.53;8393493;28;20131;-53
2022/12/08 11:26:36;;;;;;;34.17;16.98;;;;;;;5.44;100.00;99820.31;8394447;28;20060;-52
2022/12/08 11:30:42;;;;;;;36.90;16.85;;;;;;;5.51;100.00;99821.50;8392933;28;20041;-51
2022/12/08 11:35:02;;;;;;;45.60;19.25;;;;;;;5.55;100.00;99814.91;8394442;28;20568;-50
2022/12/08 11:39:04;;;;;;;40.97;19.08;;;;;;;5.63;100.00;99804.41;8392945;28;20072;-50
2022/12/08 11:43:28;;;;;;;40.00;16.42;;;;;;;5.70;100.00;99797.53;8394023;28;20476;-50
2022/12/08 11:47:45;;;;;;;32.88;15.98;;;;;;;5.81;100.00;99795.72;8394225;28;20048;-50
2022/12/08 11:51:53;;;;;;;29.63;14.88;;;;;;;5.94;100.00;99792.84;8393982;28;20032;-50
2022/12/08 11:55:58;;;;;;;37.88;15.93;;;;;;;6.10;100.00;99790.56;8393820;28;20416;-50
2022/12/08 12:00:00;;;;;;;39.95;16.20;;;;;;;6.14;100.00;99783.09;8393714;28;20134;-50
2022/12/08 12:08:44;;;;;;;28.17;12.52;;;;;;;6.24;100.00;99790.25;8321558;28;20392;-53
2022/12/08 12:13:04;;;;;;;23.97;12.43;;;;;;;6.26;100.00;99774.88;8318999;28;20034;-50
2022/12/08 12:17:20;;;;;;;25.35;11.82;;;;;;;6.29;100.00;99782.66;8318828;28;20766;-51
2022/12/08 12:21:28;;;;;;;26.55;11.85;;;;;;;6.27;99.54;99773.88;8318257;28;20045;-53
2022/12/08 12:25:28;;;;;;;23.45;11.73;;;;;;;6.30;100.00;99772.75;8318356;28;20042;-51
2022/12/08 12:29:33;;;;;;;26.33;11.20;;;;;;;6.29;100.00;99761.19;8318474;28;20494;-52
2022/12/08 12:33:35;;;;;;;23.15;11.23;;;;;;;6.28;99.93;99756.78;8318287;28;20092;-51
2022/12/08 12:37:38;;;;;;;23.73;10.98;;;;;;;6.27;100.00;99765.84;8318233;28;20046;-50
2022/12/08 12:41:57;;;;;;;22.00;10.45;;;;;;;6.29;100.00;99763.00;8317204;28;20266;-49
2022/12/08 12:46:36;;;;;;;21.83;11.25;;;;;;;6.28;100.00;99759.47;8316987;28;20038;-50
2022/12/08 12:50:44;;;;;;;28.67;14.93;;;;;;;6.26;97.26;99756.09;8316872;28;20514;-50
2022/12/08 12:55:10;;;;;;;24.17;11.10;;;;;;;6.29;95.64;99752.28;8317227;28;20037;-51
2022/12/08 12:59:34;;;;;;;20.05;10.18;;;;;;;6.34;96.37;99753.56;8316336;28;20048;-53
2022/12/08 13:03:39;;;;;;;22.20;10.77;;;;;;;6.41;96.65;99754.75;8315295;28;20183;-51
2022/12/08 13:07:45;;;;;;;22.23;9.55;;;;;;;6.43;94.25;99747.41;8316220;28;20034;-51
2022/12/08 13:11:51;;;;;;;29.38;10.88;;;;;;;6.48;95.73;99745.19;8316983;28;20388;-54
2022/12/08 13:15:58;;;;;;;22.17;10.63;;;;;;;6.54;94.43;99739.28;8316032;28;20041;-49
2022/12/08 13:20:03;;;;;;;23.52;10.75;;;;;;;6.61;92.30;99751.19;8293753;28;20038;-53
2022/12/08 13:28:27;;;;;;;21.15;8.98;;;;;;;6.54;90.15;99749.16;8352197;27;20509;-53
2022/12/08 13:32:51;;;;;;;20.55;11.82;;;;;;;6.50;91.26;99748.59;8331942;28;20410;-49
2022/12/08 13:37:12;;;;;;;17.93;7.67;;;;;;;6.43;89.96;99742.03;8279413;28;20104;-49
2022/12/08 13:41:19;;;;;;;14.35;7.30;;;;;;;6.41;89.96;99743.16;8318763;28;20276;-50
2022/12/08 13:45:23;;;;;;;12.20;6.93;;;;;;;6.37;90.93;99731.84;8316633;28;20041;-53
2022/12/08 13:49:28;;;;;;;;;;;;;;;6.33;90.71;99732.22;8318155;28;20046;-50
2022/12/08 13:53:32;;;;;;;13.73;6.75;;;;;;;6.30;91.44;99733.34;8316607;28;19924;-50
2022/12/08 13:57:35;;;;;;;17.30;6.55;;;;;;;6.29;90.11;99728.97;8321157;28;20045;-50
2022/12/08 14:01:43;;;;;;;14.63;6.63;;;;;;;6.28;91.11;99721.91;8349835;28;20033;-51
2022/12/08 14:05:44;;;;;;;17.95;6.63;;;;;;;6.23;90.76;99729.50;8349479;28;20045;-49
2022/12/08 14:09:45;;;;;;;14.75;6.32;;;;;;;6.19;89.34;99737.97;8349904;28;20041;-48
2022/12/08 14:13:45;;;;;;;10.27;5.20;;;;;;;6.15;89.46;99736.50;8349498;28;20120;-50
2022/12/08 14:17:51;;;;;;;14.90;5.93;;;;;;;6.11;90.64;99743.97;8325972;28;20053;-49
2022/12/08 14:21:57;;;;;;;12.40;6.40;;;;;;;6.04;91.00;99740.13;8316523;28;20041;-49
2022/12/08 14:25:58;;;;;;;12.95;5.95;;;;;;;6.00;89.68;99746.72;8316026;28;20034;-49
2022/12/08 14:30:02;;;;;;;14.88;7.25;;;;;;;5.99;90.42;99742.34;8339414;28;20045;-50
2022/12/08 14:34:03;;;;;;;18.60;6.18;;;;;;;5.95;90.72;99743.59;8348726;28;20660;-53
2022/12/08 14:38:12;;;;;;;12.63;5.40;;;;;;;5.91;91.13;99739.44;8336103;28;20549;-50
2022/12/08 14:42:28;;;;;;;16.15;6.53;;;;;;;5.85;90.79;99739.97;8327173;28;20045;-53
2022/12/08 14:46:28;;;;;;;12.07;5.93;;;;;;;5.80;92.38;99742.19;8326382;28;20030;-49
2022/12/08 14:54:50;;;;;;;15.35;5.85;;;;;;;5.72;92.68;99736.59;8322018;28;20393;-50
2022/12/08 14:59:18;;;;;;;15.95;6.15;;;;;;;5.69;92.38;99740.41;8313778;28;20059;-50
2022/12/08 15:03:20;;;;;;;13.55;6.13;;;;;;;5.62;92.16;99739.19;8314404;28;20042;-51
2022/12/08 15:07:26;;;;;;;12.73;6.47;;;;;;;5.61;92.89;99742.00;8315035;28;20045;-54
2022/12/08 15:11:33;;;;;;;13.50;6.38;;;;;;;5.59;92.50;99735.94;8315163;28;20550;-54
2022/12/08 15:15:52;;;;;;;12.48;6.10;;;;;;;5.53;94.79;99744.50;8314677;28;20057;-52
2022/12/08 15:19:58;;;;;;;12.43;6.78;;;;;;;5.48;92.58;99742.19;8314782;28;20068;-50
2022/12/08 15:23:59;;;;;;;21.45;6.43;;;;;;;5.45;92.39;99746.94;8314364;28;20038;-50
2022/12/08 15:28:01;;;;;;;17.70;5.75;;;;;;;5.41;91.61;99745.50;8313985;28;20080;-52
2022/12/08 15:32:04;;;;;;;10.13;5.57;;;;;;;5.37;91.05;99754.78;8314636;28;20052;-50
2022/12/08 15:36:05;;;;;;;18.55;7.22;;;;;;;5.28;92.16;99745.66;8314294;28;20049;-49
2022/12/08 15:40:13;;;;;;;13.63;5.90;;;;;;;5.14;93.07;99745.09;8313181;28;20061;-50
2022/12/08 15:44:13;;;;;;;13.40;5.43;;;;;;;5.00;93.32;99743.53;8311672;28;20095;-50
2022/12/08 15:48:18;;;;;;;12.20;5.68;;;;;;;4.90;94.20;99741.72;8309494;28;20503;-51
2022/12/08 15:52:23;;;;;;;13.90;5.57;;;;;;;4.81;94.30;99747.81;8294650;28;20091;-50
2022/12/08 15:56:23;;;;;;;14.80;6.47;;;;;;;4.74;93.68;99738.59;8290644;28;20097;-50
2022/12/08 16:00:29;;;;;;;15.77;7.47;;;;;;;4.66;94.17;99741.03;8283268;28;20046;-52
2022/12/08 16:04:29;;;;;;;19.00;7.45;;;;;;;4.60;94.37;99752.25;8268248;28;20034;-49
2022/12/08 16:08:30;;;;;;;20.60;8.15;;;;;;;4.60;95.48;99752.25;8259836;28;20042;-50
2022/12/08 16:14:02;;;;;;;18.75;7.70;;;;;;;4.50;95.45;99745.88;8259024;28;20491;-49
2022/12/08 16:16:51;;;;;;;15.95;7.70;;;;;;;4.47;96.79;99752.34;8273363;28;20092;-50
2022/12/08 16:20:51;;;;;;;15.45;8.38;;;;;;;4.41;97.04;99738.59;8291124;28;20125;-50
2022/12/08 16:24:52;;;;;;;20.42;9.75;;;;;;;4.37;98.48;99734.47;8290683;28;20038;-49
2022/12/08 16:28:52;;;;;;;16.63;8.45;;;;;;;4.30;98.53;99735.94;8290776;28;20092;-49
2022/12/08 16:32:52;;;;;;;15.40;8.25;;;;;;;4.31;98.18;99729.59;8290777;28;20044;-50
2022/12/08 16:36:53;;;;;;;19.40;8.52;;;;;;;4.28;98.47;99736.03;8290873;28;20050;-50
2022/12/08 16:45:19;;;;;;;19.75;8.73;;;;;;;3.85;99.76;99748.38;8276016;28;20042;-51
2022/12/08 16:49:19;;;;;;;17.77;10.02;;;;;;;3.74;100.00;99746.50;8273524;28;20038;-49
2022/12/08 16:53:20;;;;;;;16.45;9.63;;;;;;;3.61;100.00;99744.88;8256380;28;20121;-51
2022/12/08 16:57:21;;;;;;;19.88;9.75;;;;;;;3.72;100.00;99748.44;8257236;28;20073;-50
2022/12/08 17:01:22;;;;;;;13.85;8.88;;;;;;;3.85;100.00;99743.00;8291879;28;20041;-52
2022/12/08 17:05:24;;;;;;;13.88;8.65;;;;;;;3.90;100.00;99746.16;8292029;28;20041;-49
2022/12/08 17:09:25;;;;;;;16.13;8.20;;;;;;;3.95;100.00;99744.88;8292019;28;20045;-49
2022/12/08 17:13:26;;;;;;;25.55;9.15;;;;;;;3.90;100.00;99744.34;8290922;28;20042;-49
2022/12/08 17:17:27;;;;;;;22.13;9.13;;;;;;;3.92;100.00;99750.44;8289911;28;20042;-49
2022/12/08 17:21:28;;;;;;;15.48;8.75;;;;;;;3.88;99.83;99751.63;8290674;28;20034;-50
2022/12/08 17:25:28;;;;;;;17.42;9.00;;;;;;;3.80;99.27;99751.38;8291351;28;20037;-50
2022/12/08 17:29:31;;;;;;;20.30;9.35;;;;;;;3.71;98.65;99751.22;8290961;28;20076;-50
2022/12/08 17:33:31;;;;;;;17.60;8.95;;;;;;;3.68;99.37;99746.97;8286498;28;20037;-50
2022/12/08 17:37:32;;;;;;;19.52;9.65;;;;;;;3.61;99.41;99751.09;8290649;28;20072;-50
2022/12/08 17:41:33;;;;;;;15.38;8.50;;;;;;;3.63;100.00;99754.47;8289756;28;20030;-52
2022/12/08 17:45:38;;;;;;;18.42;9.80;;;;;;;3.65;100.00;99741.84;8289804;28;20044;-50
2022/12/08 17:49:41;;;;;;;16.08;9.85;;;;;;;3.52;98.41;99746.44;8287217;28;20045;-49
2022/12/08 17:53:41;;;;;;;15.80;8.82;;;;;;;3.24;100.00;99736.09;8266509;28;20045;-50
2022/12/08 17:57:42;;;;;;;14.35;8.38;;;;;;;3.11;100.00;99745.97;8262924;28;20503;-50
2022/12/08 18:01:43;;;;;;;22.25;10.55;;;;;;;3.05;100.00;99735.75;8287681;28;20407;-50
2022/12/08 18:05:44;;;;;;;17.15;9.82;;;;;;;3.05;100.00;99727.72;8288106;28;20323;-49
2022/12/08 18:09:44;;;;;;;18.70;8.77;;;;;;;3.07;100.00;99741.84;8289229;28;20583;-51
2022/12/08 18:13:46;;;;;;;16.67;8.38;;;;;;;3.03;100.00;99736.81;8289786;28;20399;-50
2022/12/08 18:17:47;;;;;;;15.70;8.15;;;;;;;2.91;100.00;99735.91;8288788;28;20104;-49
2022/12/08 18:21:47;;;;;;;30.10;14.05;;;;;;;2.88;100.00;99741.47;8278098;28;20041;-50
2022/12/08 18:25:48;;;;;;;49.50;19.85;;;;;;;2.88;100.00;99752.16;8283710;28;20045;-49
2022/12/08 18:29:48;;;;;;;27.63;12.65;;;;;;;2.93;100.00;99751.81;8276798;28;20057;-49
2022/12/08 18:33:50;;;;;;;23.10;11.13;;;;;;;2.91;100.00;99743.91;8273406;28;20041;-50
2022/12/08 18:37:50;;;;;;;22.15;11.10;;;;;;;2.89;100.00;99745.84;8264853;28;20049;-51
2022/12/08 18:41:52;;;;;;;14.38;9.15;;;;;;;2.90;100.00;99742.19;8256976;28;20065;-50
2022/12/08 18:46:03;;;;;;;18.58;9.75;;;;;;;2.96;100.00;99731.06;8257316;28;20121;-50
2022/12/08 18:50:06;;;;;;;21.83;9.55;;;;;;;3.02;100.00;99733.28;8267918;28;20547;-49
2022/12/08 18:54:07;;;;;;;20.42;8.77;;;;;;;3.09;100.00;99726.56;8279803;28;20057;-49
2022/12/08 18:58:09;;;;;;;17.17;10.00;;;;;;;3.20;100.00;99739.94;8288661;28;20049;-52
2022/12/08 19:02:11;;;;;;;18.58;8.65;;;;;;;3.38;100.00;99741.25;8289758;28;20443;-50
2022/12/08 19:06:12;;;;;;;17.30;9.90;;;;;;;3.44;99.84;99743.47;8289338;28;20038;-50
2022/12/08 19:10:12;;;;;;;29.77;14.40;;;;;;;3.43;99.50;99741.78;8288565;28;20045;-51
2022/12/08 19:14:13;;;;;;;32.22;15.15;;;;;;;3.44;100.00;99738.13;8287759;28;20051;-50